createdAt,value
2023-02-03T05:55:22.758Z,-0.06
2023-02-03T05:57:51.770Z,-0.07
2023-02-03T06:00:21.047Z,-0.07
2023-02-03T06:03:01.936Z,-0.08
2023-02-03T06:06:02.979Z,-0.09
2023-02-03T06:30:11.206Z,0.42
2023-02-03T06:32:38.662Z,0.44
2023-02-03T06:35:17.910Z,0.33
2023-02-03T06:37:44.749Z,0.22
2023-02-03T06:40:12.441Z,0.18
2023-02-03T06:42:46.638Z,0.12
2023-02-03T06:45:14.487Z,0.08
2023-02-03T06:47:42.916Z,0.03
2023-02-03T06:50:14.090Z,0.00
2023-02-03T06:52:46.186Z,-0.01
2023-02-03T06:55:13.055Z,-0.02
2023-02-03T06:57:51.931Z,-0.05
2023-02-03T07:00:23.977Z,-0.07
2023-02-03T07:06:07.093Z,-0.10
2023-02-03T07:08:44.123Z,-0.11
2023-02-03T07:11:11.582Z,-0.10
2023-02-03T07:13:38.474Z,-0.13
2023-02-03T07:16:06.261Z,-0.14
2023-02-03T07:18:46.833Z,-0.13
2023-02-03T07:21:17.086Z,-0.13
2023-02-03T07:23:47.737Z,-0.13
2023-02-03T07:26:45.967Z,-0.11
2023-02-03T07:29:19.423Z,-0.09
2023-02-03T07:31:46.952Z,-0.07
2023-02-03T07:34:16.564Z,-0.06
2023-02-03T07:36:43.793Z,-0.07
2023-02-03T07:39:10.981Z,-0.06
2023-02-03T07:41:37.921Z,-0.05
2023-02-03T07:44:05.121Z,-0.06
2023-02-03T07:46:32.255Z,-0.06
2023-02-03T07:49:18.170Z,-0.06
2023-02-03T07:55:12.419Z,-0.03
2023-02-03T07:57:42.688Z,-0.03
2023-02-03T08:00:12.023Z,-0.01
2023-02-03T08:02:53.449Z,-0.01
2023-02-03T08:05:54.040Z,-0.00
2023-02-03T08:10:20.228Z,-0.01
2023-02-03T08:28:20.937Z,0.05
2023-02-03T08:30:49.398Z,0.07
2023-02-03T08:33:16.957Z,0.07
2023-02-03T08:35:56.398Z,0.08
2023-02-03T08:38:23.657Z,0.11
2023-02-03T08:40:55.030Z,0.10
2023-02-03T08:43:22.892Z,0.13
2023-02-03T08:46:02.950Z,0.14
2023-02-03T08:48:38.783Z,0.18
2023-02-03T08:51:14.075Z,0.16
2023-02-03T08:53:43.146Z,0.19
2023-02-03T08:56:25.923Z,0.19
2023-02-03T08:58:55.976Z,0.20
2023-02-03T09:01:23.461Z,0.23
2023-02-03T09:03:51.497Z,0.24
2023-02-03T09:06:24.115Z,0.25
2023-02-03T09:09:04.345Z,0.25
2023-02-03T09:11:35.644Z,0.27
2023-02-03T09:14:02.827Z,0.30
2023-02-03T09:16:36.127Z,0.32
2023-02-03T09:19:03.597Z,0.36
2023-02-03T09:21:33.364Z,0.37
2023-02-03T09:24:03.456Z,0.37
2023-02-03T09:26:30.815Z,0.37
2023-02-03T09:28:57.645Z,0.38
2023-02-03T09:31:24.339Z,0.42
2023-02-03T09:33:51.676Z,0.45
2023-02-03T09:36:18.801Z,0.48
2023-02-03T09:38:45.751Z,0.49
2023-02-03T09:41:34.277Z,0.52
2023-02-03T09:44:29.853Z,0.54
2023-02-03T09:55:38.231Z,0.63
2023-02-03T09:58:06.227Z,0.64
2023-02-03T10:00:42.218Z,0.66
2023-02-03T10:03:18.730Z,0.67
2023-02-03T10:06:16.354Z,0.69
2023-02-03T10:09:23.881Z,0.69
2023-02-03T10:12:19.351Z,0.70
2023-02-03T10:14:55.098Z,0.68
2023-02-03T10:17:32.346Z,0.68
2023-02-03T10:20:11.376Z,0.69
2023-02-03T10:22:50.632Z,0.69
2023-02-03T10:25:33.417Z,0.67
2023-02-03T10:28:29.073Z,0.67
2023-02-03T10:31:13.916Z,0.63
2023-02-03T10:34:19.301Z,0.62
2023-02-03T10:37:05.200Z,0.60
2023-02-03T10:40:01.844Z,0.58
2023-02-03T10:43:07.717Z,0.55
2023-02-03T10:45:37.978Z,0.48
2023-02-03T10:48:15.967Z,0.47
2023-02-03T10:50:49.747Z,0.44
2023-02-03T10:53:35.223Z,0.40
2023-02-03T10:56:12.887Z,0.39
2023-02-03T10:58:49.203Z,0.42
2023-02-03T11:01:20.909Z,0.40
2023-02-03T11:03:59.924Z,0.38
2023-02-03T11:06:27.393Z,0.33
2023-02-03T11:08:54.614Z,0.31
2023-02-03T11:11:27.656Z,0.27
2023-02-03T11:14:10.239Z,0.24
2023-02-03T11:16:56.180Z,0.25
2023-02-03T11:19:23.251Z,0.19
2023-02-03T11:21:53.730Z,0.18
2023-02-03T11:24:24.558Z,0.20
2023-02-03T11:26:59.524Z,0.20
2023-02-03T11:29:34.045Z,0.17
2023-02-03T11:32:19.138Z,0.08
2023-02-03T11:34:51.555Z,0.06
2023-02-03T11:37:38.670Z,0.06
2023-02-03T11:40:08.462Z,0.07
2023-02-03T11:42:44.873Z,0.08
2023-02-03T11:45:25.788Z,0.05
2023-02-03T11:48:07.380Z,0.07
2023-02-03T11:50:41.365Z,0.06
2023-02-03T11:53:14.026Z,0.07
2023-02-03T11:55:59.660Z,0.08
2023-02-03T11:58:35.543Z,0.08
2023-02-03T12:29:51.813Z,0.02
2023-02-03T12:32:59.821Z,0.03
2023-02-03T12:43:48.791Z,0.03
2023-02-03T12:46:55.740Z,0.01
2023-02-03T12:50:01.782Z,0.10
2023-02-03T12:53:13.767Z,0.09
2023-02-03T12:56:10.250Z,0.07
2023-02-03T12:58:49.184Z,0.06
2023-02-03T13:01:49.212Z,0.12
2023-02-03T13:04:38.077Z,0.09
2023-02-03T13:07:31.752Z,0.07
2023-02-03T13:37:57.559Z,0.13
2023-02-03T13:40:42.732Z,0.18
2023-02-03T13:43:17.378Z,0.17
2023-02-03T13:45:51.635Z,0.14
2023-02-03T13:48:28.314Z,0.14
2023-02-03T13:51:34.128Z,0.15
2023-02-03T13:54:07.246Z,0.15
2023-02-03T13:56:34.207Z,0.15
2023-02-03T13:59:27.983Z,0.16
2023-02-03T14:02:26.572Z,0.20
2023-02-03T14:04:55.703Z,0.20
2023-02-03T14:07:28.402Z,0.21
2023-02-03T14:10:07.476Z,0.22
2023-02-03T14:12:51.208Z,0.22
2023-02-03T14:15:20.437Z,0.25
2023-02-03T14:17:47.189Z,0.26
2023-02-03T14:20:26.260Z,0.27
2023-02-03T14:23:15.270Z,0.28
2023-02-03T14:25:50.166Z,0.31
2023-02-03T14:28:24.731Z,0.32
2023-02-03T14:31:02.637Z,0.35
2023-02-03T14:33:45.615Z,0.38
2023-02-03T14:36:37.301Z,0.42
2023-02-03T14:39:37.632Z,0.45
2023-02-03T14:42:22.475Z,0.48
2023-02-03T14:45:34.191Z,0.49
2023-02-03T14:48:28.843Z,0.58
2023-02-03T14:51:01.760Z,0.64
2023-02-03T14:53:56.514Z,0.63
2023-02-03T14:57:15.287Z,0.63
2023-02-03T14:59:57.454Z,0.64
2023-02-03T15:02:27.233Z,0.66
2023-02-03T15:05:13.120Z,0.68
2023-02-03T15:07:45.804Z,0.69
2023-02-03T15:10:26.354Z,0.71
2023-02-03T15:12:55.544Z,0.70
2023-02-03T15:15:37.963Z,0.73
2023-02-03T15:18:39.160Z,0.87
2023-02-03T15:21:13.990Z,0.86
2023-02-03T15:23:47.167Z,0.85
2023-02-03T15:26:20.390Z,0.86
2023-02-03T15:28:58.485Z,0.83
2023-02-03T15:31:44.193Z,0.84
2023-02-03T15:34:34.719Z,1.05
2023-02-03T16:15:49.702Z,1.04
2023-02-03T16:18:17.493Z,1.05
2023-02-03T16:20:50.312Z,1.08
2023-02-03T16:23:22.985Z,1.13
2023-02-03T16:26:06.839Z,1.18
2023-02-03T16:28:52.860Z,1.21
2023-02-03T16:31:39.980Z,1.25
2023-02-03T16:34:34.953Z,1.28
2023-02-03T16:37:49.016Z,1.33
2023-02-03T16:40:38.797Z,1.36
2023-02-03T16:43:31.635Z,1.41
2023-02-03T16:46:18.772Z,1.45
2023-02-03T16:49:24.617Z,1.48
2023-02-03T16:51:51.819Z,1.50
2023-02-03T16:54:19.105Z,1.51
2023-02-03T16:56:51.483Z,1.55
2023-02-03T16:59:20.272Z,1.59
2023-02-03T17:01:48.183Z,1.62
2023-02-03T17:04:16.645Z,1.66
2023-02-03T17:06:45.371Z,1.69
2023-02-03T17:09:12.635Z,1.71
2023-02-03T17:11:39.499Z,1.74
2023-02-03T17:14:06.258Z,1.74
2023-02-03T17:16:32.921Z,1.76
2023-02-03T17:18:59.979Z,1.77
2023-02-03T17:21:29.107Z,1.79
2023-02-03T17:23:59.714Z,1.80
2023-02-03T17:26:26.644Z,1.82
2023-02-03T17:28:57.973Z,1.83
2023-02-03T17:31:25.202Z,1.85
2023-02-03T17:33:52.211Z,1.87
2023-02-03T17:36:21.176Z,1.87
2023-02-03T18:09:43.204Z,2.07
2023-02-03T18:15:57.583Z,2.11
2023-02-03T18:24:44.279Z,2.16
2023-02-03T18:27:17.377Z,2.16
2023-02-03T18:29:46.403Z,2.18
2023-02-03T18:32:14.976Z,2.18
2023-02-03T18:34:42.525Z,2.17
2023-02-03T18:37:11.136Z,2.18
2023-02-03T18:39:38.429Z,2.22
2023-02-03T18:42:11.796Z,2.26
2023-02-03T18:44:43.898Z,2.24
2023-02-03T18:47:12.536Z,2.23
2023-02-03T18:49:40.264Z,2.23
2023-02-03T18:52:07.325Z,2.24
2023-02-03T18:54:34.194Z,2.25
2023-02-03T18:57:02.642Z,2.26
2023-02-03T18:59:31.337Z,2.27
2023-02-03T19:01:58.797Z,2.29
2023-02-03T19:04:26.272Z,2.29
2023-02-03T19:06:54.215Z,2.29
2023-02-03T19:19:14.107Z,2.28
2023-02-03T19:21:44.400Z,2.29
2023-02-03T19:24:21.081Z,2.29
2023-02-03T19:26:56.088Z,2.30
2023-02-03T20:56:21.533Z,2.45
2023-02-03T20:58:49.397Z,2.44
2023-02-03T21:01:25.288Z,2.43
2023-02-03T21:39:13.748Z,2.55
2023-02-03T21:41:53.320Z,2.56
2023-02-03T21:45:10.102Z,2.57
2023-02-03T21:48:40.300Z,2.59
2023-02-03T21:51:20.548Z,2.60
2023-02-03T21:53:54.964Z,2.61
2023-02-03T21:56:29.746Z,2.61
2023-02-03T21:58:59.330Z,2.60
2023-02-03T22:01:34.189Z,2.60
2023-02-03T22:04:03.240Z,2.60
2023-02-03T22:06:48.581Z,2.60
2023-02-03T22:09:23.015Z,2.58
2023-02-03T22:11:50.396Z,2.61
2023-02-03T22:14:20.428Z,2.62
2023-02-03T22:16:51.817Z,2.61
2023-02-03T22:19:18.906Z,2.60
2023-02-03T22:21:47.889Z,2.60
2023-02-03T22:24:15.045Z,2.59
2023-02-03T22:26:42.361Z,2.59
2023-02-03T22:29:09.391Z,2.58
2023-02-03T22:31:36.452Z,2.59
2023-02-03T22:34:03.793Z,2.59
2023-02-03T22:36:30.982Z,2.61
2023-02-03T22:38:58.181Z,2.61
2023-02-03T22:41:25.544Z,2.60
2023-02-03T22:43:52.557Z,2.61
2023-02-03T22:46:19.651Z,2.61
2023-02-03T22:48:47.001Z,2.61
2023-02-03T22:51:14.127Z,2.63
2023-02-03T22:53:44.244Z,2.66
2023-02-03T22:56:12.335Z,2.67
2023-02-03T22:58:59.430Z,2.69
2023-02-03T23:01:26.349Z,2.69
2023-02-03T23:10:24.879Z,2.62
2023-02-03T23:12:51.765Z,2.61
2023-02-03T23:15:18.668Z,2.61
2023-02-03T23:17:45.776Z,2.58
2023-02-03T23:20:14.828Z,2.59
2023-02-03T23:25:53.013Z,2.57
2023-02-03T23:28:20.652Z,2.57
2023-02-03T23:30:47.971Z,2.57
2023-02-03T23:33:14.989Z,2.56
2023-02-03T23:35:44.614Z,2.56
2023-02-03T23:38:12.274Z,2.56
2023-02-03T23:40:39.306Z,2.57
2023-02-03T23:43:06.193Z,2.57
2023-02-03T23:46:07.162Z,2.52
2023-02-03T23:48:54.441Z,2.50
2023-02-03T23:51:35.464Z,2.49
2023-02-03T23:54:44.825Z,2.46
2023-02-03T23:57:13.090Z,2.48
2023-02-03T23:59:40.318Z,2.43
